KHSP/HSP METAR and TAF weather

Enter ICAO airport designator
Station Type Date Time Source
KHSP METAR 2021/02/27 03:15 UTC NOAA

KHSP 270315Z AUTO 00000KT M1/4SM UP OVC001 M01/M02 A3020 RMK AO2 T10151022


Station Type Date Time Source
KHSP Decoded METAR 2021/02/27 03:15 UTC NOAA

Hot Springs / Ingalls, VA, United States (KHSP) 37-57N 079-50W
Feb 26, 2021 - 10:15 PM EST / 2021.02.27 0315 UTC
Wind: Calm:0
Visibility: less than 1/4 mile(s):1
Sky conditions: overcast
Weather: precipitation
Temperature: 29.3 F (-1.5 C)
Dew Point: 28.0 F (-2.2 C)
Relative Humidity: 94%
Pressure (altimeter): 30.2 in. Hg (1022 hPa)
ob: KHSP 270315Z AUTO 00000KT M1/4SM UP OVC001 M01/M02 A3020 RMK AO2 T10151022
cycle: 3

Station Type Date Time Source
KHSP TAF UTC NOAA

Error!

Example: see airport list